sensor_id;sensor_type;location;lat;lon;timestamp;P1;durP1;ratioP1;P2;durP2;ratioP2
21162;SDS011;10739;52.198;20.908;2023-10-13T00:02:00;32.63;;;17.77;;
21162;SDS011;10739;52.198;20.908;2023-10-13T00:04:32;40.20;;;17.23;;
21162;SDS011;10739;52.198;20.908;2023-10-13T00:07:00;38.88;;;19.55;;
21162;SDS011;10739;52.198;20.908;2023-10-13T00:09:29;29.27;;;14.70;;
21162;SDS011;10739;52.198;20.908;2023-10-13T00:12:02;27.50;;;16.05;;
21162;SDS011;10739;52.198;20.908;2023-10-13T00:14:39;28.17;;;16.10;;
21162;SDS011;10739;52.198;20.908;2023-10-13T00:17:10;28.83;;;15.57;;
21162;SDS011;10739;52.198;20.908;2023-10-13T00:19:45;25.35;;;15.68;;
21162;SDS011;10739;52.198;20.908;2023-10-13T00:22:17;29.27;;;15.80;;
21162;SDS011;10739;52.198;20.908;2023-10-13T00:24:45;24.33;;;14.48;;
21162;SDS011;10739;52.198;20.908;2023-10-13T00:27:12;28.63;;;14.73;;
21162;SDS011;10739;52.198;20.908;2023-10-13T00:29:54;23.98;;;14.52;;
21162;SDS011;10739;52.198;20.908;2023-10-13T00:32:40;28.10;;;13.70;;
21162;SDS011;10739;52.198;20.908;2023-10-13T00:35:11;24.80;;;14.32;;
21162;SDS011;10739;52.198;20.908;2023-10-13T00:37:50;19.67;;;13.07;;
21162;SDS011;10739;52.198;20.908;2023-10-13T00:40:22;26.20;;;14.73;;
21162;SDS011;10739;52.198;20.908;2023-10-13T00:42:59;26.55;;;14.20;;
21162;SDS011;10739;52.198;20.908;2023-10-13T00:48:32;29.08;;;14.75;;
21162;SDS011;10739;52.198;20.908;2023-10-13T00:51:19;20.40;;;13.15;;
21162;SDS011;10739;52.198;20.908;2023-10-13T00:54:06;22.13;;;13.27;;
21162;SDS011;10739;52.198;20.908;2023-10-13T00:56:40;20.80;;;12.63;;
21162;SDS011;10739;52.198;20.908;2023-10-13T00:59:18;23.88;;;12.95;;
21162;SDS011;10739;52.198;20.908;2023-10-13T01:01:48;25.05;;;13.20;;
21162;SDS011;10739;52.198;20.908;2023-10-13T01:04:20;25.77;;;14.13;;
21162;SDS011;10739;52.198;20.908;2023-10-13T01:06:53;25.55;;;13.60;;
21162;SDS011;10739;52.198;20.908;2023-10-13T01:09:19;23.60;;;12.70;;
21162;SDS011;10739;52.198;20.908;2023-10-13T01:11:50;21.85;;;12.85;;
21162;SDS011;10739;52.198;20.908;2023-10-13T01:14:20;24.63;;;12.80;;
21162;SDS011;10739;52.198;20.908;2023-10-13T01:16:52;24.17;;;13.55;;
21162;SDS011;10739;52.198;20.908;2023-10-13T01:19:20;25.27;;;13.85;;
21162;SDS011;10739;52.198;20.908;2023-10-13T01:21:50;26.58;;;12.60;;
21162;SDS011;10739;52.198;20.908;2023-10-13T01:24:30;25.20;;;13.15;;
21162;SDS011;10739;52.198;20.908;2023-10-13T01:27:00;23.55;;;13.80;;
21162;SDS011;10739;52.198;20.908;2023-10-13T01:29:43;23.85;;;12.82;;
21162;SDS011;10739;52.198;20.908;2023-10-13T01:32:18;19.73;;;12.45;;
21162;SDS011;10739;52.198;20.908;2023-10-13T01:34:46;25.55;;;12.55;;
21162;SDS011;10739;52.198;20.908;2023-10-13T01:37:14;23.27;;;13.38;;
21162;SDS011;10739;52.198;20.908;2023-10-13T01:39:41;20.27;;;11.77;;
21162;SDS011;10739;52.198;20.908;2023-10-13T01:42:08;18.27;;;11.73;;
21162;SDS011;10739;52.198;20.908;2023-10-13T01:44:34;22.95;;;12.45;;
21162;SDS011;10739;52.198;20.908;2023-10-13T01:47:01;20.30;;;11.50;;
21162;SDS011;10739;52.198;20.908;2023-10-13T01:49:34;17.30;;;11.80;;
21162;SDS011;10739;52.198;20.908;2023-10-13T01:52:15;22.75;;;11.77;;
21162;SDS011;10739;52.198;20.908;2023-10-13T01:54:41;16.58;;;10.80;;
21162;SDS011;10739;52.198;20.908;2023-10-13T01:57:14;14.63;;;9.70;;
21162;SDS011;10739;52.198;20.908;2023-10-13T01:59:43;16.48;;;10.00;;
21162;SDS011;10739;52.198;20.908;2023-10-13T02:02:11;18.52;;;10.50;;
21162;SDS011;10739;52.198;20.908;2023-10-13T02:04:42;18.20;;;10.32;;
21162;SDS011;10739;52.198;20.908;2023-10-13T02:07:14;20.63;;;11.48;;
21162;SDS011;10739;52.198;20.908;2023-10-13T02:09:41;21.23;;;11.55;;
21162;SDS011;10739;52.198;20.908;2023-10-13T02:12:08;16.27;;;10.20;;
21162;SDS011;10739;52.198;20.908;2023-10-13T02:14:35;17.45;;;11.18;;
21162;SDS011;10739;52.198;20.908;2023-10-13T02:17:04;18.70;;;10.85;;
21162;SDS011;10739;52.198;20.908;2023-10-13T02:19:42;21.23;;;12.13;;
21162;SDS011;10739;52.198;20.908;2023-10-13T02:22:12;23.20;;;11.70;;
21162;SDS011;10739;52.198;20.908;2023-10-13T02:25:06;19.83;;;11.55;;
21162;SDS011;10739;52.198;20.908;2023-10-13T02:27:41;19.83;;;11.70;;
21162;SDS011;10739;52.198;20.908;2023-10-13T02:30:09;29.58;;;11.48;;
21162;SDS011;10739;52.198;20.908;2023-10-13T02:32:40;19.27;;;11.73;;
21162;SDS011;10739;52.198;20.908;2023-10-13T02:35:09;22.80;;;10.82;;
21162;SDS011;10739;52.198;20.908;2023-10-13T02:37:41;20.63;;;11.40;;
21162;SDS011;10739;52.198;20.908;2023-10-13T02:40:19;20.27;;;10.48;;
21162;SDS011;10739;52.198;20.908;2023-10-13T02:42:48;17.73;;;10.52;;
21162;SDS011;10739;52.198;20.908;2023-10-13T02:45:15;21.63;;;10.80;;
21162;SDS011;10739;52.198;20.908;2023-10-13T02:47:43;17.63;;;10.77;;
21162;SDS011;10739;52.198;20.908;2023-10-13T02:50:09;18.42;;;10.80;;
21162;SDS011;10739;52.198;20.908;2023-10-13T02:52:38;17.95;;;10.32;;
21162;SDS011;10739;52.198;20.908;2023-10-13T02:55:09;14.57;;;10.88;;
21162;SDS011;10739;52.198;20.908;2023-10-13T02:57:39;16.10;;;11.02;;
21162;SDS011;10739;52.198;20.908;2023-10-13T03:00:06;21.58;;;11.50;;
21162;SDS011;10739;52.198;20.908;2023-10-13T03:02:41;21.17;;;11.50;;
21162;SDS011;10739;52.198;20.908;2023-10-13T03:05:19;21.63;;;10.93;;
21162;SDS011;10739;52.198;20.908;2023-10-13T03:07:48;23.23;;;11.55;;
21162;SDS011;10739;52.198;20.908;2023-10-13T03:10:16;22.35;;;11.15;;
21162;SDS011;10739;52.198;20.908;2023-10-13T03:12:44;21.35;;;10.23;;
21162;SDS011;10739;52.198;20.908;2023-10-13T03:15:14;24.73;;;11.52;;
21162;SDS011;10739;52.198;20.908;2023-10-13T03:17:45;19.45;;;10.77;;
21162;SDS011;10739;52.198;20.908;2023-10-13T03:20:12;20.38;;;11.48;;
21162;SDS011;10739;52.198;20.908;2023-10-13T03:22:42;24.00;;;10.88;;
21162;SDS011;10739;52.198;20.908;2023-10-13T03:25:12;21.88;;;9.82;;
21162;SDS011;10739;52.198;20.908;2023-10-13T03:27:49;25.23;;;11.32;;
21162;SDS011;10739;52.198;20.908;2023-10-13T03:30:16;21.73;;;10.68;;
21162;SDS011;10739;52.198;20.908;2023-10-13T03:32:43;22.70;;;11.07;;
21162;SDS011;10739;52.198;20.908;2023-10-13T03:35:14;23.38;;;11.55;;
21162;SDS011;10739;52.198;20.908;2023-10-13T03:37:53;28.50;;;11.68;;
21162;SDS011;10739;52.198;20.908;2023-10-13T03:40:20;28.42;;;11.68;;
21162;SDS011;10739;52.198;20.908;2023-10-13T03:45:35;19.70;;;11.40;;
21162;SDS011;10739;52.198;20.908;2023-10-13T03:48:10;18.00;;;11.25;;
21162;SDS011;10739;52.198;20.908;2023-10-13T03:50:52;20.73;;;11.65;;
21162;SDS011;10739;52.198;20.908;2023-10-13T03:53:40;20.17;;;11.60;;
21162;SDS011;10739;52.198;20.908;2023-10-13T03:56:20;23.58;;;10.60;;
21162;SDS011;10739;52.198;20.908;2023-10-13T03:59:04;22.52;;;11.77;;
21162;SDS011;10739;52.198;20.908;2023-10-13T04:01:36;19.85;;;11.20;;
21162;SDS011;10739;52.198;20.908;2023-10-13T04:04:22;39.45;;;14.88;;
21162;SDS011;10739;52.198;20.908;2023-10-13T04:07:08;22.10;;;11.13;;
21162;SDS011;10739;52.198;20.908;2023-10-13T04:09:35;20.17;;;11.45;;
21162;SDS011;10739;52.198;20.908;2023-10-13T04:12:07;19.30;;;10.60;;
21162;SDS011;10739;52.198;20.908;2023-10-13T04:14:37;31.42;;;10.88;;
21162;SDS011;10739;52.198;20.908;2023-10-13T04:17:22;27.00;;;15.70;;
21162;SDS011;10739;52.198;20.908;2023-10-13T04:19:56;35.17;;;17.25;;
21162;SDS011;10739;52.198;20.908;2023-10-13T04:22:39;23.73;;;11.68;;
21162;SDS011;10739;52.198;20.908;2023-10-13T04:25:13;20.88;;;11.60;;
21162;SDS011;10739;52.198;20.908;2023-10-13T04:33:13;20.80;;;11.40;;
21162;SDS011;10739;52.198;20.908;2023-10-13T04:36:22;20.60;;;10.88;;
21162;SDS011;10739;52.198;20.908;2023-10-13T04:38:47;17.20;;;10.20;;
21162;SDS011;10739;52.198;20.908;2023-10-13T04:41:32;19.23;;;10.80;;
21162;SDS011;10739;52.198;20.908;2023-10-13T04:44:08;19.30;;;10.65;;
21162;SDS011;10739;52.198;20.908;2023-10-13T04:46:56;21.17;;;10.27;;
21162;SDS011;10739;52.198;20.908;2023-10-13T04:49:24;26.60;;;9.80;;
21162;SDS011;10739;52.198;20.908;2023-10-13T04:52:15;24.17;;;9.93;;
21162;SDS011;10739;52.198;20.908;2023-10-13T04:55:01;22.63;;;10.35;;
21162;SDS011;10739;52.198;20.908;2023-10-13T04:58:02;22.13;;;10.27;;
21162;SDS011;10739;52.198;20.908;2023-10-13T05:01:01;24.98;;;11.63;;
21162;SDS011;10739;52.198;20.908;2023-10-13T05:03:48;48.50;;;20.13;;
21162;SDS011;10739;52.198;20.908;2023-10-13T05:06:28;27.10;;;12.07;;
21162;SDS011;10739;52.198;20.908;2023-10-13T05:09:15;18.48;;;10.32;;
21162;SDS011;10739;52.198;20.908;2023-10-13T05:11:59;20.83;;;11.13;;
21162;SDS011;10739;52.198;20.908;2023-10-13T05:14:45;24.80;;;11.18;;
21162;SDS011;10739;52.198;20.908;2023-10-13T05:17:30;20.73;;;10.73;;
21162;SDS011;10739;52.198;20.908;2023-10-13T05:20:15;29.55;;;11.20;;
21162;SDS011;10739;52.198;20.908;2023-10-13T05:23:00;17.88;;;10.65;;
21162;SDS011;10739;52.198;20.908;2023-10-13T05:25:45;23.83;;;11.02;;
21162;SDS011;10739;52.198;20.908;2023-10-13T05:28:30;19.20;;;10.02;;
21162;SDS011;10739;52.198;20.908;2023-10-13T05:31:17;25.15;;;11.52;;
21162;SDS011;10739;52.198;20.908;2023-10-13T05:34:02;20.23;;;10.85;;
21162;SDS011;10739;52.198;20.908;2023-10-13T05:36:47;18.92;;;10.90;;
21162;SDS011;10739;52.198;20.908;2023-10-13T05:39:32;33.08;;;13.23;;
21162;SDS011;10739;52.198;20.908;2023-10-13T05:42:17;24.15;;;11.23;;
21162;SDS011;10739;52.198;20.908;2023-10-13T05:45:02;21.85;;;11.93;;
21162;SDS011;10739;52.198;20.908;2023-10-13T05:47:47;27.58;;;13.18;;
21162;SDS011;10739;52.198;20.908;2023-10-13T05:50:26;27.40;;;12.43;;
21162;SDS011;10739;52.198;20.908;2023-10-13T05:52:52;43.15;;;19.95;;
21162;SDS011;10739;52.198;20.908;2023-10-13T05:55:27;29.13;;;14.60;;
21162;SDS011;10739;52.198;20.908;2023-10-13T05:58:15;33.50;;;14.60;;
21162;SDS011;10739;52.198;20.908;2023-10-13T06:01:00;24.63;;;13.65;;
21162;SDS011;10739;52.198;20.908;2023-10-13T06:03:45;32.20;;;16.95;;
21162;SDS011;10739;52.198;20.908;2023-10-13T06:06:30;47.80;;;19.58;;
21162;SDS011;10739;52.198;20.908;2023-10-13T06:09:15;66.85;;;27.77;;
21162;SDS011;10739;52.198;20.908;2023-10-13T06:12:00;57.30;;;26.27;;
21162;SDS011;10739;52.198;20.908;2023-10-13T06:14:45;57.60;;;25.45;;
21162;SDS011;10739;52.198;20.908;2023-10-13T06:17:31;61.38;;;30.52;;
21162;SDS011;10739;52.198;20.908;2023-10-13T06:20:16;58.53;;;26.15;;
21162;SDS011;10739;52.198;20.908;2023-10-13T06:23:01;41.40;;;18.98;;
21162;SDS011;10739;52.198;20.908;2023-10-13T06:25:52;65.20;;;26.70;;
21162;SDS011;10739;52.198;20.908;2023-10-13T06:28:38;30.90;;;13.82;;
21162;SDS011;10739;52.198;20.908;2023-10-13T06:31:08;30.90;;;13.30;;
21162;SDS011;10739;52.198;20.908;2023-10-13T06:33:46;25.25;;;10.63;;
21162;SDS011;10739;52.198;20.908;2023-10-13T06:36:13;23.80;;;10.18;;
21162;SDS011;10739;52.198;20.908;2023-10-13T06:38:39;17.33;;;8.77;;
21162;SDS011;10739;52.198;20.908;2023-10-13T06:41:07;24.60;;;10.00;;
21162;SDS011;10739;52.198;20.908;2023-10-13T06:43:34;30.90;;;9.07;;
21162;SDS011;10739;52.198;20.908;2023-10-13T06:46:08;20.75;;;9.85;;
21162;SDS011;10739;52.198;20.908;2023-10-13T06:48:41;20.05;;;8.32;;
21162;SDS011;10739;52.198;20.908;2023-10-13T06:51:09;17.25;;;8.52;;
21162;SDS011;10739;52.198;20.908;2023-10-13T06:53:47;17.65;;;7.93;;
21162;SDS011;10739;52.198;20.908;2023-10-13T06:56:14;18.88;;;8.07;;
21162;SDS011;10739;52.198;20.908;2023-10-13T06:59:03;26.42;;;7.95;;
21162;SDS011;10739;52.198;20.908;2023-10-13T07:01:29;16.55;;;9.50;;
21162;SDS011;10739;52.198;20.908;2023-10-13T07:04:03;21.88;;;9.57;;
21162;SDS011;10739;52.198;20.908;2023-10-13T07:06:43;20.67;;;9.40;;
21162;SDS011;10739;52.198;20.908;2023-10-13T07:09:20;31.30;;;10.63;;
21162;SDS011;10739;52.198;20.908;2023-10-13T07:12:02;21.95;;;8.88;;
21162;SDS011;10739;52.198;20.908;2023-10-13T07:14:45;15.77;;;7.63;;
21162;SDS011;10739;52.198;20.908;2023-10-13T07:17:18;14.48;;;7.90;;
21162;SDS011;10739;52.198;20.908;2023-10-13T07:19:55;20.63;;;7.72;;
21162;SDS011;10739;52.198;20.908;2023-10-13T07:22:31;15.30;;;7.07;;
21162;SDS011;10739;52.198;20.908;2023-10-13T07:25:05;14.77;;;6.13;;
21162;SDS011;10739;52.198;20.908;2023-10-13T07:27:32;15.88;;;6.07;;
21162;SDS011;10739;52.198;20.908;2023-10-13T07:30:00;19.60;;;6.70;;
21162;SDS011;10739;52.198;20.908;2023-10-13T07:32:43;14.55;;;6.70;;
21162;SDS011;10739;52.198;20.908;2023-10-13T07:35:17;12.77;;;6.35;;
21162;SDS011;10739;52.198;20.908;2023-10-13T07:37:51;17.13;;;6.55;;
21162;SDS011;10739;52.198;20.908;2023-10-13T07:40:19;15.45;;;6.55;;
21162;SDS011;10739;52.198;20.908;2023-10-13T07:42:54;16.30;;;7.18;;
21162;SDS011;10739;52.198;20.908;2023-10-13T07:45:35;15.82;;;7.10;;
21162;SDS011;10739;52.198;20.908;2023-10-13T07:48:09;21.98;;;7.47;;
21162;SDS011;10739;52.198;20.908;2023-10-13T07:51:08;21.63;;;8.10;;
21162;SDS011;10739;52.198;20.908;2023-10-13T07:53:45;17.88;;;6.85;;
21162;SDS011;10739;52.198;20.908;2023-10-13T07:56:15;12.15;;;5.30;;
21162;SDS011;10739;52.198;20.908;2023-10-13T07:58:46;16.98;;;5.45;;
21162;SDS011;10739;52.198;20.908;2023-10-13T08:01:18;20.37;;;5.33;;
21162;SDS011;10739;52.198;20.908;2023-10-13T08:03:45;19.98;;;5.43;;
21162;SDS011;10739;52.198;20.908;2023-10-13T08:06:12;13.57;;;5.22;;
21162;SDS011;10739;52.198;20.908;2023-10-13T08:08:41;15.05;;;5.47;;
21162;SDS011;10739;52.198;20.908;2023-10-13T08:11:13;14.05;;;6.35;;
21162;SDS011;10739;52.198;20.908;2023-10-13T08:13:49;19.25;;;7.30;;
21162;SDS011;10739;52.198;20.908;2023-10-13T08:16:21;16.75;;;6.60;;
21162;SDS011;10739;52.198;20.908;2023-10-13T08:18:49;16.38;;;7.60;;
21162;SDS011;10739;52.198;20.908;2023-10-13T08:21:17;17.10;;;7.18;;
21162;SDS011;10739;52.198;20.908;2023-10-13T08:23:50;19.15;;;7.57;;
21162;SDS011;10739;52.198;20.908;2023-10-13T08:26:23;18.58;;;7.85;;
21162;SDS011;10739;52.198;20.908;2023-10-13T08:29:16;17.60;;;8.32;;
21162;SDS011;10739;52.198;20.908;2023-10-13T08:31:49;20.45;;;8.45;;
21162;SDS011;10739;52.198;20.908;2023-10-13T08:34:46;20.63;;;8.75;;
21162;SDS011;10739;52.198;20.908;2023-10-13T08:37:13;20.58;;;9.00;;
21162;SDS011;10739;52.198;20.908;2023-10-13T08:39:52;22.35;;;8.95;;
21162;SDS011;10739;52.198;20.908;2023-10-13T08:42:31;18.65;;;9.40;;
21162;SDS011;10739;52.198;20.908;2023-10-13T08:45:18;22.55;;;9.10;;
21162;SDS011;10739;52.198;20.908;2023-10-13T08:47:51;18.15;;;8.35;;
21162;SDS011;10739;52.198;20.908;2023-10-13T08:53:14;18.77;;;9.00;;
21162;SDS011;10739;52.198;20.908;2023-10-13T08:56:10;18.45;;;8.50;;
21162;SDS011;10739;52.198;20.908;2023-10-13T08:58:41;22.60;;;9.60;;
21162;SDS011;10739;52.198;20.908;2023-10-13T09:01:18;20.38;;;9.20;;
21162;SDS011;10739;52.198;20.908;2023-10-13T09:04:14;19.40;;;9.43;;
21162;SDS011;10739;52.198;20.908;2023-10-13T09:07:03;23.33;;;9.77;;
21162;SDS011;10739;52.198;20.908;2023-10-13T09:09:49;22.58;;;9.07;;
21162;SDS011;10739;52.198;20.908;2023-10-13T09:14:54;19.83;;;10.45;;
21162;SDS011;10739;52.198;20.908;2023-10-13T09:20:27;21.15;;;9.27;;
21162;SDS011;10739;52.198;20.908;2023-10-13T09:23:08;18.80;;;9.55;;
21162;SDS011;10739;52.198;20.908;2023-10-13T09:25:38;22.80;;;10.48;;
21162;SDS011;10739;52.198;20.908;2023-10-13T09:28:29;18.90;;;9.30;;
21162;SDS011;10739;52.198;20.908;2023-10-13T09:30:56;19.67;;;10.02;;
21162;SDS011;10739;52.198;20.908;2023-10-13T09:33:24;22.55;;;9.85;;
21162;SDS011;10739;52.198;20.908;2023-10-13T09:36:00;15.63;;;10.10;;
21162;SDS011;10739;52.198;20.908;2023-10-13T09:38:33;22.63;;;10.38;;
21162;SDS011;10739;52.198;20.908;2023-10-13T09:41:24;21.50;;;10.13;;
21162;SDS011;10739;52.198;20.908;2023-10-13T09:43:57;19.50;;;10.75;;
21162;SDS011;10739;52.198;20.908;2023-10-13T09:46:30;25.55;;;10.73;;
21162;SDS011;10739;52.198;20.908;2023-10-13T09:49:05;21.25;;;10.57;;
21162;SDS011;10739;52.198;20.908;2023-10-13T09:51:48;22.13;;;11.18;;
21162;SDS011;10739;52.198;20.908;2023-10-13T09:54:20;21.85;;;9.93;;
21162;SDS011;10739;52.198;20.908;2023-10-13T09:56:57;22.83;;;11.45;;
21162;SDS011;10739;52.198;20.908;2023-10-13T09:59:47;19.75;;;10.95;;
21162;SDS011;10739;52.198;20.908;2023-10-13T10:02:18;22.73;;;11.25;;
21162;SDS011;10739;52.198;20.908;2023-10-13T10:04:55;23.00;;;10.27;;
21162;SDS011;10739;52.198;20.908;2023-10-13T10:07:37;20.10;;;10.65;;
21162;SDS011;10739;52.198;20.908;2023-10-13T10:10:09;22.90;;;10.80;;
21162;SDS011;10739;52.198;20.908;2023-10-13T10:16:07;21.63;;;10.52;;
21162;SDS011;10739;52.198;20.908;2023-10-13T10:18:45;17.42;;;9.48;;
21162;SDS011;10739;52.198;20.908;2023-10-13T10:21:11;22.77;;;10.15;;
21162;SDS011;10739;52.198;20.908;2023-10-13T10:23:40;20.20;;;9.85;;
21162;SDS011;10739;52.198;20.908;2023-10-13T10:26:18;17.45;;;9.25;;
21162;SDS011;10739;52.198;20.908;2023-10-13T10:28:47;17.73;;;9.93;;
21162;SDS011;10739;52.198;20.908;2023-10-13T10:31:14;16.92;;;9.90;;
21162;SDS011;10739;52.198;20.908;2023-10-13T10:33:42;28.40;;;9.88;;
21162;SDS011;10739;52.198;20.908;2023-10-13T10:36:10;20.05;;;9.80;;
21162;SDS011;10739;52.198;20.908;2023-10-13T10:38:55;20.85;;;9.85;;
21162;SDS011;10739;52.198;20.908;2023-10-13T10:41:26;17.27;;;9.57;;
21162;SDS011;10739;52.198;20.908;2023-10-13T10:44:13;22.15;;;9.77;;
21162;SDS011;10739;52.198;20.908;2023-10-13T10:47:12;22.33;;;9.85;;
21162;SDS011;10739;52.198;20.908;2023-10-13T10:49:57;25.15;;;10.18;;
21162;SDS011;10739;52.198;20.908;2023-10-13T10:52:26;18.75;;;9.32;;
21162;SDS011;10739;52.198;20.908;2023-10-13T10:55:02;18.75;;;9.85;;
21162;SDS011;10739;52.198;20.908;2023-10-13T10:57:33;17.42;;;8.70;;
21162;SDS011;10739;52.198;20.908;2023-10-13T11:00:05;17.38;;;9.63;;
21162;SDS011;10739;52.198;20.908;2023-10-13T11:02:52;18.27;;;9.13;;
21162;SDS011;10739;52.198;20.908;2023-10-13T11:05:22;19.40;;;8.40;;
21162;SDS011;10739;52.198;20.908;2023-10-13T11:07:58;16.88;;;8.80;;
21162;SDS011;10739;52.198;20.908;2023-10-13T11:10:24;20.35;;;9.55;;
21162;SDS011;10739;52.198;20.908;2023-10-13T11:12:58;16.98;;;8.95;;
21162;SDS011;10739;52.198;20.908;2023-10-13T11:15:42;13.85;;;8.88;;
21162;SDS011;10739;52.198;20.908;2023-10-13T11:18:12;18.42;;;10.07;;
21162;SDS011;10739;52.198;20.908;2023-10-13T11:20:49;18.40;;;9.23;;
21162;SDS011;10739;52.198;20.908;2023-10-13T11:23:19;19.45;;;9.38;;
21162;SDS011;10739;52.198;20.908;2023-10-13T11:25:59;13.43;;;8.57;;
21162;SDS011;10739;52.198;20.908;2023-10-13T11:28:26;13.75;;;8.38;;
21162;SDS011;10739;52.198;20.908;2023-10-13T11:30:53;15.88;;;8.35;;
21162;SDS011;10739;52.198;20.908;2023-10-13T11:33:36;17.70;;;8.82;;
21162;SDS011;10739;52.198;20.908;2023-10-13T11:36:12;17.70;;;8.43;;
21162;SDS011;10739;52.198;20.908;2023-10-13T11:38:43;26.17;;;9.32;;
21162;SDS011;10739;52.198;20.908;2023-10-13T11:41:15;18.30;;;8.52;;
21162;SDS011;10739;52.198;20.908;2023-10-13T11:46:15;17.55;;;8.68;;
21162;SDS011;10739;52.198;20.908;2023-10-13T11:49:06;17.55;;;7.88;;
21162;SDS011;10739;52.198;20.908;2023-10-13T11:51:41;13.93;;;7.72;;
21162;SDS011;10739;52.198;20.908;2023-10-13T11:54:15;12.68;;;7.55;;
21162;SDS011;10739;52.198;20.908;2023-10-13T11:56:45;20.17;;;7.97;;
21162;SDS011;10739;52.198;20.908;2023-10-13T11:59:13;16.73;;;7.55;;
21162;SDS011;10739;52.198;20.908;2023-10-13T12:01:50;16.75;;;7.68;;
21162;SDS011;10739;52.198;20.908;2023-10-13T12:04:35;22.67;;;7.25;;
21162;SDS011;10739;52.198;20.908;2023-10-13T12:07:14;16.90;;;7.30;;
21162;SDS011;10739;52.198;20.908;2023-10-13T12:10:10;16.60;;;7.15;;
21162;SDS011;10739;52.198;20.908;2023-10-13T12:12:59;18.10;;;7.57;;
21162;SDS011;10739;52.198;20.908;2023-10-13T12:15:33;11.70;;;7.38;;
21162;SDS011;10739;52.198;20.908;2023-10-13T12:18:02;20.83;;;8.35;;
21162;SDS011;10739;52.198;20.908;2023-10-13T12:20:30;17.70;;;7.05;;
21162;SDS011;10739;52.198;20.908;2023-10-13T12:23:01;18.30;;;7.97;;
21162;SDS011;10739;52.198;20.908;2023-10-13T12:25:36;23.75;;;8.00;;
21162;SDS011;10739;52.198;20.908;2023-10-13T12:28:23;16.65;;;7.55;;
21162;SDS011;10739;52.198;20.908;2023-10-13T12:30:52;15.05;;;7.97;;
21162;SDS011;10739;52.198;20.908;2023-10-13T12:33:22;14.60;;;6.95;;
21162;SDS011;10739;52.198;20.908;2023-10-13T12:35:55;16.75;;;7.68;;
21162;SDS011;10739;52.198;20.908;2023-10-13T12:38:48;15.70;;;7.95;;
21162;SDS011;10739;52.198;20.908;2023-10-13T12:41:15;20.63;;;7.82;;
21162;SDS011;10739;52.198;20.908;2023-10-13T12:44:04;21.27;;;8.27;;
21162;SDS011;10739;52.198;20.908;2023-10-13T12:46:50;16.70;;;8.15;;
21162;SDS011;10739;52.198;20.908;2023-10-13T12:49:36;17.48;;;7.90;;
21162;SDS011;10739;52.198;20.908;2023-10-13T12:52:08;19.58;;;8.40;;
21162;SDS011;10739;52.198;20.908;2023-10-13T12:57:27;20.13;;;8.15;;
21162;SDS011;10739;52.198;20.908;2023-10-13T12:59:54;13.65;;;7.55;;
21162;SDS011;10739;52.198;20.908;2023-10-13T13:02:21;14.95;;;7.85;;
21162;SDS011;10739;52.198;20.908;2023-10-13T13:04:50;15.23;;;8.15;;
21162;SDS011;10739;52.198;20.908;2023-10-13T13:07:47;21.30;;;8.98;;
21162;SDS011;10739;52.198;20.908;2023-10-13T13:10:18;18.05;;;8.93;;
21162;SDS011;10739;52.198;20.908;2023-10-13T13:12:44;13.85;;;8.13;;
21162;SDS011;10739;52.198;20.908;2023-10-13T13:15:11;16.38;;;8.15;;
21162;SDS011;10739;52.198;20.908;2023-10-13T13:17:38;14.43;;;8.70;;
21162;SDS011;10739;52.198;20.908;2023-10-13T13:20:05;13.60;;;8.55;;
21162;SDS011;10739;52.198;20.908;2023-10-13T13:22:37;17.35;;;8.15;;
21162;SDS011;10739;52.198;20.908;2023-10-13T13:25:04;20.10;;;8.85;;
21162;SDS011;10739;52.198;20.908;2023-10-13T13:27:34;18.90;;;8.75;;
21162;SDS011;10739;52.198;20.908;2023-10-13T13:30:02;15.35;;;8.27;;
21162;SDS011;10739;52.198;20.908;2023-10-13T13:32:38;14.07;;;8.55;;
21162;SDS011;10739;52.198;20.908;2023-10-13T13:35:06;13.25;;;8.45;;
21162;SDS011;10739;52.198;20.908;2023-10-13T13:37:34;16.17;;;7.90;;
21162;SDS011;10739;52.198;20.908;2023-10-13T13:40:05;21.35;;;8.75;;
21162;SDS011;10739;52.198;20.908;2023-10-13T13:42:43;15.60;;;8.73;;
21162;SDS011;10739;52.198;20.908;2023-10-13T13:45:14;20.30;;;8.05;;
21162;SDS011;10739;52.198;20.908;2023-10-13T13:48:01;18.73;;;9.50;;
21162;SDS011;10739;52.198;20.908;2023-10-13T13:50:33;20.87;;;9.17;;
21162;SDS011;10739;52.198;20.908;2023-10-13T13:55:37;20.10;;;9.23;;
21162;SDS011;10739;52.198;20.908;2023-10-13T13:58:05;20.00;;;8.65;;
21162;SDS011;10739;52.198;20.908;2023-10-13T14:00:34;19.50;;;9.30;;
21162;SDS011;10739;52.198;20.908;2023-10-13T14:03:03;22.35;;;8.88;;
21162;SDS011;10739;52.198;20.908;2023-10-13T14:05:44;18.58;;;9.80;;
21162;SDS011;10739;52.198;20.908;2023-10-13T14:08:10;16.13;;;9.40;;
21162;SDS011;10739;52.198;20.908;2023-10-13T14:10:41;21.27;;;9.77;;
21162;SDS011;10739;52.198;20.908;2023-10-13T14:13:26;22.38;;;10.68;;
21162;SDS011;10739;52.198;20.908;2023-10-13T14:16:12;19.30;;;9.73;;
21162;SDS011;10739;52.198;20.908;2023-10-13T14:18:42;18.40;;;8.88;;
21162;SDS011;10739;52.198;20.908;2023-10-13T14:21:16;16.70;;;9.00;;
21162;SDS011;10739;52.198;20.908;2023-10-13T14:23:50;17.77;;;9.13;;
21162;SDS011;10739;52.198;20.908;2023-10-13T14:26:21;17.45;;;8.50;;
21162;SDS011;10739;52.198;20.908;2023-10-13T14:28:51;14.73;;;9.18;;
21162;SDS011;10739;52.198;20.908;2023-10-13T14:31:29;15.20;;;8.27;;
21162;SDS011;10739;52.198;20.908;2023-10-13T14:33:57;18.85;;;9.32;;
21162;SDS011;10739;52.198;20.908;2023-10-13T14:36:24;15.70;;;9.48;;
21162;SDS011;10739;52.198;20.908;2023-10-13T14:38:57;15.52;;;9.55;;
21162;SDS011;10739;52.198;20.908;2023-10-13T14:41:23;14.02;;;9.98;;
21162;SDS011;10739;52.198;20.908;2023-10-13T14:43:50;19.63;;;9.73;;
21162;SDS011;10739;52.198;20.908;2023-10-13T14:46:16;15.25;;;9.38;;
21162;SDS011;10739;52.198;20.908;2023-10-13T14:48:48;23.17;;;9.90;;
21162;SDS011;10739;52.198;20.908;2023-10-13T14:51:18;18.70;;;10.20;;
21162;SDS011;10739;52.198;20.908;2023-10-13T14:53:45;17.77;;;10.00;;
21162;SDS011;10739;52.198;20.908;2023-10-13T14:56:13;16.98;;;10.18;;
21162;SDS011;10739;52.198;20.908;2023-10-13T14:58:42;23.15;;;9.55;;
21162;SDS011;10739;52.198;20.908;2023-10-13T15:01:10;19.55;;;10.07;;
21162;SDS011;10739;52.198;20.908;2023-10-13T15:03:41;18.15;;;9.75;;
21162;SDS011;10739;52.198;20.908;2023-10-13T15:06:20;24.75;;;10.88;;
21162;SDS011;10739;52.198;20.908;2023-10-13T15:08:55;19.65;;;9.43;;
21162;SDS011;10739;52.198;20.908;2023-10-13T15:11:24;20.00;;;10.13;;
21162;SDS011;10739;52.198;20.908;2023-10-13T15:14:04;26.90;;;11.15;;
21162;SDS011;10739;52.198;20.908;2023-10-13T15:16:33;21.23;;;11.18;;
21162;SDS011;10739;52.198;20.908;2023-10-13T15:18:59;20.75;;;11.50;;
21162;SDS011;10739;52.198;20.908;2023-10-13T15:21:28;23.92;;;10.68;;
21162;SDS011;10739;52.198;20.908;2023-10-13T15:24:03;30.08;;;12.88;;
21162;SDS011;10739;52.198;20.908;2023-10-13T15:26:39;19.73;;;10.98;;
21162;SDS011;10739;52.198;20.908;2023-10-13T15:29:10;21.00;;;12.60;;
21162;SDS011;10739;52.198;20.908;2023-10-13T15:31:43;21.08;;;12.68;;
21162;SDS011;10739;52.198;20.908;2023-10-13T15:34:30;21.20;;;11.98;;